sensor_id;sensor_type;location;lat;lon;timestamp;pressure;altitude;pressure_sealevel;temperature;humidity
55858;BME280;41779;52.360;31.026;2022-07-17T00:00:44;1025.6;;;16.8;63.4
55858;BME280;41779;52.360;31.026;2022-07-17T00:05:44;1025.6;;;16.7;63.2
55858;BME280;41779;52.360;31.026;2022-07-17T00:10:44;1025.7;;;16.7;63.2
55858;BME280;41779;52.360;31.026;2022-07-17T00:15:44;1025.7;;;16.8;63.1
55858;BME280;41779;52.360;31.026;2022-07-17T00:20:44;1025.6;;;16.7;62.9
55858;BME280;41779;52.360;31.026;2022-07-17T00:25:44;1025.6;;;16.7;62.9
55858;BME280;41779;52.360;31.026;2022-07-17T00:30:44;1025.6;;;16.7;62.9
55858;BME280;41779;52.360;31.026;2022-07-17T00:35:44;1025.6;;;16.6;62.8
55858;BME280;41779;52.360;31.026;2022-07-17T00:40:44;1025.5;;;16.3;62.9
55858;BME280;41779;52.360;31.026;2022-07-17T00:45:44;1025.5;;;16.1;63.6
55858;BME280;41779;52.360;31.026;2022-07-17T00:50:44;1025.6;;;16.1;63.7
55858;BME280;41779;52.360;31.026;2022-07-17T00:55:45;1025.6;;;16.2;63.6
55858;BME280;41779;52.360;31.026;2022-07-17T01:00:44;1025.6;;;16.3;63.6
55858;BME280;41779;52.360;31.026;2022-07-17T01:05:44;1025.6;;;16.4;63.8
55858;BME280;41779;52.360;31.026;2022-07-17T01:10:44;1025.6;;;16.5;63.7
55858;BME280;41779;52.360;31.026;2022-07-17T01:15:44;1025.7;;;16.5;62.9
55858;BME280;41779;52.360;31.026;2022-07-17T01:20:45;1025.7;;;16.4;62.7
55858;BME280;41779;52.360;31.026;2022-07-17T01:25:45;1025.7;;;16.3;62.8
55858;BME280;41779;52.360;31.026;2022-07-17T01:30:44;1025.7;;;16.1;62.9
55858;BME280;41779;52.360;31.026;2022-07-17T01:35:44;1025.6;;;16;63.3
55858;BME280;41779;52.360;31.026;2022-07-17T01:40:44;1025.6;;;16;63.5
55858;BME280;41779;52.360;31.026;2022-07-17T01:45:44;1025.5;;;16.1;63.4
55858;BME280;41779;52.360;31.026;2022-07-17T01:50:44;1025.5;;;16.1;63.2
55858;BME280;41779;52.360;31.026;2022-07-17T01:55:44;1025.5;;;16.1;63
55858;BME280;41779;52.360;31.026;2022-07-17T02:00:44;1025.5;;;16.1;63
55858;BME280;41779;52.360;31.026;2022-07-17T02:05:44;1025.4;;;16.2;63
55858;BME280;41779;52.360;31.026;2022-07-17T02:10:44;1025.4;;;16.3;62.9
55858;BME280;41779;52.360;31.026;2022-07-17T02:15:44;1025.4;;;16.3;62.9
55858;BME280;41779;52.360;31.026;2022-07-17T02:20:44;1025.5;;;16.4;62.6
55858;BME280;41779;52.360;31.026;2022-07-17T02:25:44;1025.4;;;16.4;62.3
55858;BME280;41779;52.360;31.026;2022-07-17T02:30:44;1025.4;;;16.4;62.3
55858;BME280;41779;52.360;31.026;2022-07-17T02:35:44;1025.3;;;16.4;62.5
55858;BME280;41779;52.360;31.026;2022-07-17T02:40:44;1025.3;;;16.4;62.6
55858;BME280;41779;52.360;31.026;2022-07-17T02:45:44;1025.3;;;16.4;62.5
55858;BME280;41779;52.360;31.026;2022-07-17T02:50:44;1025.2;;;16.3;62.8
55858;BME280;41779;52.360;31.026;2022-07-17T02:55:44;1025.2;;;16.4;62.7
55858;BME280;41779;52.360;31.026;2022-07-17T03:00:44;1025.2;;;16.5;62.9
55858;BME280;41779;52.360;31.026;2022-07-17T03:05:44;1025.1;;;16.7;62.7
55858;BME280;41779;52.360;31.026;2022-07-17T03:10:44;1025.1;;;16.8;62.6
55858;BME280;41779;52.360;31.026;2022-07-17T03:15:44;1025.1;;;16.8;62.4
55858;BME280;41779;52.360;31.026;2022-07-17T03:20:44;1025.1;;;16.8;61.8
55858;BME280;41779;52.360;31.026;2022-07-17T03:25:44;1025.1;;;16.8;62.2
55858;BME280;41779;52.360;31.026;2022-07-17T03:30:44;1025.1;;;16.9;62.2
55858;BME280;41779;52.360;31.026;2022-07-17T03:35:44;1025;;;17.2;61.5
55858;BME280;41779;52.360;31.026;2022-07-17T03:40:44;1025;;;17.4;61.3
55858;BME280;41779;52.360;31.026;2022-07-17T03:45:44;1025;;;17.4;60.8
55858;BME280;41779;52.360;31.026;2022-07-17T03:50:44;1024.9;;;17.5;60.4
55858;BME280;41779;52.360;31.026;2022-07-17T03:55:44;1025;;;17.6;60.2
55858;BME280;41779;52.360;31.026;2022-07-17T04:00:44;1025;;;17.6;60.1
55858;BME280;41779;52.360;31.026;2022-07-17T04:05:44;1025;;;17.7;60.2
55858;BME280;41779;52.360;31.026;2022-07-17T04:10:44;1025;;;17.8;60
55858;BME280;41779;52.360;31.026;2022-07-17T04:15:44;1025;;;17.8;59.6
55858;BME280;41779;52.360;31.026;2022-07-17T04:20:44;1024.9;;;18;59.1
55858;BME280;41779;52.360;31.026;2022-07-17T04:25:44;1024.8;;;18.1;58.8
55858;BME280;41779;52.360;31.026;2022-07-17T04:30:44;1024.8;;;18.2;58.9
55858;BME280;41779;52.360;31.026;2022-07-17T04:35:44;1024.9;;;18.3;59
55858;BME280;41779;52.360;31.026;2022-07-17T04:40:44;1025;;;18.5;58.7
55858;BME280;41779;52.360;31.026;2022-07-17T04:45:44;1025;;;18.6;58
55858;BME280;41779;52.360;31.026;2022-07-17T04:50:44;1025;;;18.6;57.1
55858;BME280;41779;52.360;31.026;2022-07-17T04:55:44;1025;;;18.7;56.9
55858;BME280;41779;52.360;31.026;2022-07-17T05:00:44;1025;;;18.9;57.1
55858;BME280;41779;52.360;31.026;2022-07-17T05:05:44;1024.9;;;19.1;56.7
55858;BME280;41779;52.360;31.026;2022-07-17T05:10:44;1024.9;;;19.3;56.8
55858;BME280;41779;52.360;31.026;2022-07-17T05:15:44;1024.8;;;19.4;55.7
55858;BME280;41779;52.360;31.026;2022-07-17T05:20:44;1024.8;;;19.6;55.1
55858;BME280;41779;52.360;31.026;2022-07-17T05:25:44;1024.7;;;19.8;55.1
55858;BME280;41779;52.360;31.026;2022-07-17T05:30:44;1024.6;;;20;55.2
55858;BME280;41779;52.360;31.026;2022-07-17T05:35:44;1024.6;;;20.3;55.1
55858;BME280;41779;52.360;31.026;2022-07-17T05:40:44;1024.6;;;20.5;54.1
55858;BME280;41779;52.360;31.026;2022-07-17T05:45:44;1024.5;;;20.7;53.2
55858;BME280;41779;52.360;31.026;2022-07-17T05:50:44;1024.5;;;21;51.3
55858;BME280;41779;52.360;31.026;2022-07-17T05:55:44;1024.5;;;21.2;49.9
55858;BME280;41779;52.360;31.026;2022-07-17T06:00:44;1024.5;;;21.4;49.6
55858;BME280;41779;52.360;31.026;2022-07-17T06:05:44;1024.5;;;21.5;49.5
55858;BME280;41779;52.360;31.026;2022-07-17T06:10:44;1024.4;;;21.5;49
55858;BME280;41779;52.360;31.026;2022-07-17T06:15:44;1024.5;;;21.6;49.2
55858;BME280;41779;52.360;31.026;2022-07-17T06:20:44;1024.5;;;21.8;49
55858;BME280;41779;52.360;31.026;2022-07-17T06:25:44;1024.5;;;22.1;47.7
55858;BME280;41779;52.360;31.026;2022-07-17T06:30:44;1024.5;;;22.4;46.4
55858;BME280;41779;52.360;31.026;2022-07-17T06:35:44;1024.5;;;22.6;46.1
55858;BME280;41779;52.360;31.026;2022-07-17T06:40:44;1024.5;;;22.8;44.9
55858;BME280;41779;52.360;31.026;2022-07-17T06:45:44;1024.5;;;23.1;44.5
55858;BME280;41779;52.360;31.026;2022-07-17T06:50:44;1024.5;;;23.3;44.3
55858;BME280;41779;52.360;31.026;2022-07-17T06:55:44;1024.5;;;23.5;43.9
55858;BME280;41779;52.360;31.026;2022-07-17T07:00:44;1024.4;;;23.8;43.3
55858;BME280;41779;52.360;31.026;2022-07-17T07:05:44;1024.5;;;24;42.8
55858;BME280;41779;52.360;31.026;2022-07-17T07:10:44;1024.4;;;24.1;42.5
55858;BME280;41779;52.360;31.026;2022-07-17T07:15:44;1024.4;;;24.4;41.8
55858;BME280;41779;52.360;31.026;2022-07-17T07:20:44;1024.4;;;24.3;39.2
55858;BME280;41779;52.360;31.026;2022-07-17T07:25:44;1024.4;;;24.1;40.4
55858;BME280;41779;52.360;31.026;2022-07-17T07:30:44;1024.4;;;24;41.2
55858;BME280;41779;52.360;31.026;2022-07-17T07:35:44;1024.3;;;23.8;42
55858;BME280;41779;52.360;31.026;2022-07-17T07:40:44;1024.3;;;23.7;42.7
55858;BME280;41779;52.360;31.026;2022-07-17T07:45:44;1024.3;;;23.6;43.2
55858;BME280;41779;52.360;31.026;2022-07-17T07:50:44;1024.3;;;23.5;43.5
55858;BME280;41779;52.360;31.026;2022-07-17T07:55:44;1024.2;;;23.7;43.8
55858;BME280;41779;52.360;31.026;2022-07-17T08:00:44;1024.1;;;23.9;43.5
55858;BME280;41779;52.360;31.026;2022-07-17T08:05:44;1024;;;23.9;43.3
55858;BME280;41779;52.360;31.026;2022-07-17T08:10:44;1024;;;23.7;43.1
55858;BME280;41779;52.360;31.026;2022-07-17T08:15:44;1024.1;;;23.6;43.1
55858;BME280;41779;52.360;31.026;2022-07-17T08:20:44;1024.2;;;23.4;43.3
55858;BME280;41779;52.360;31.026;2022-07-17T08:25:44;1024.2;;;23.1;43.3
55858;BME280;41779;52.360;31.026;2022-07-17T08:30:44;1024.3;;;22.7;43.2
55858;BME280;41779;52.360;31.026;2022-07-17T08:35:44;1024.6;;;22.4;44.7
55858;BME280;41779;52.360;31.026;2022-07-17T08:40:44;1024.9;;;21.9;49.1
55858;BME280;41779;52.360;31.026;2022-07-17T08:45:44;1025.2;;;21.1;52.3
55858;BME280;41779;52.360;31.026;2022-07-17T08:50:45;1025.4;;;20.3;53.2
55858;BME280;41779;52.360;31.026;2022-07-17T08:55:44;1025.5;;;19.6;52
55858;BME280;41779;52.360;31.026;2022-07-17T09:00:44;1025.6;;;19.3;53.8
55858;BME280;41779;52.360;31.026;2022-07-17T09:05:44;1025.6;;;19;56.2
55858;BME280;41779;52.360;31.026;2022-07-17T09:10:45;1025.6;;;18.9;58.2
55858;BME280;41779;52.360;31.026;2022-07-17T09:15:44;1025.6;;;18.7;60.6
55858;BME280;41779;52.360;31.026;2022-07-17T09:20:48;1025.6;;;18.4;61.6
55858;BME280;41779;52.360;31.026;2022-07-17T09:25:45;1025.7;;;18.2;62
55858;BME280;41779;52.360;31.026;2022-07-17T09:30:45;1025.6;;;18.2;62.4
55858;BME280;41779;52.360;31.026;2022-07-17T09:35:45;1025.6;;;18.2;63.4
55858;BME280;41779;52.360;31.026;2022-07-17T09:40:44;1025.6;;;18.2;64.7
55858;BME280;41779;52.360;31.026;2022-07-17T09:45:44;1025.6;;;18.3;64.7
55858;BME280;41779;52.360;31.026;2022-07-17T09:50:44;1025.6;;;18.4;64.7
55858;BME280;41779;52.360;31.026;2022-07-17T09:55:44;1025.7;;;18.5;64.5
55858;BME280;41779;52.360;31.026;2022-07-17T10:00:44;1025.9;;;18.3;63.6
55858;BME280;41779;52.360;31.026;2022-07-17T10:05:44;1026;;;18.2;62.4
55858;BME280;41779;52.360;31.026;2022-07-17T10:10:44;1026.1;;;18.3;63.2
55858;BME280;41779;52.360;31.026;2022-07-17T10:15:44;1026;;;18.5;62.5
55858;BME280;41779;52.360;31.026;2022-07-17T10:20:44;1025.9;;;18.7;62
55858;BME280;41779;52.360;31.026;2022-07-17T10:25:44;1025.9;;;18.6;62.1
55858;BME280;41779;52.360;31.026;2022-07-17T10:30:44;1025.9;;;19;60.8
55858;BME280;41779;52.360;31.026;2022-07-17T10:35:46;1025.9;;;19.3;60.6
55858;BME280;41779;52.360;31.026;2022-07-17T10:40:44;1025.9;;;19.3;61.3
55858;BME280;41779;52.360;31.026;2022-07-17T10:45:45;1026;;;19.3;61.5
55858;BME280;41779;52.360;31.026;2022-07-17T10:50:47;1026;;;19.3;62.8
55858;BME280;41779;52.360;31.026;2022-07-17T10:55:45;1026;;;19.3;62.6
55858;BME280;41779;52.360;31.026;2022-07-17T11:00:54;1025.9;;;19.5;62.8
55858;BME280;41779;52.360;31.026;2022-07-17T11:05:44;1025.9;;;19.7;62.2
55858;BME280;41779;52.360;31.026;2022-07-17T11:10:45;1026;;;19.9;62
55858;BME280;41779;52.360;31.026;2022-07-17T11:15:45;1026;;;19.9;62.9
55858;BME280;41779;52.360;31.026;2022-07-17T11:20:54;1026;;;19.8;62.9
55858;BME280;41779;52.360;31.026;2022-07-17T11:25:52;1025.9;;;20;60.2
55858;BME280;41779;52.360;31.026;2022-07-17T11:30:44;1025.8;;;20.3;60.3
55858;BME280;41779;52.360;31.026;2022-07-17T11:35:46;1025.8;;;20.5;59.4
55858;BME280;41779;52.360;31.026;2022-07-17T11:40:46;1025.8;;;20.7;59.2
55858;BME280;41779;52.360;31.026;2022-07-17T11:45:44;1025.9;;;20.7;60.3
55858;BME280;41779;52.360;31.026;2022-07-17T11:50:52;1026;;;20.7;58.8
55858;BME280;41779;52.360;31.026;2022-07-17T11:55:44;1026;;;20.9;58.5
55858;BME280;41779;52.360;31.026;2022-07-17T12:00:44;1026;;;20.9;59.5
55858;BME280;41779;52.360;31.026;2022-07-17T12:05:44;1026;;;20.8;60
55858;BME280;41779;52.360;31.026;2022-07-17T12:10:44;1026;;;20.6;60.4
55858;BME280;41779;52.360;31.026;2022-07-17T12:15:45;1026;;;20.5;60.4
55858;BME280;41779;52.360;31.026;2022-07-17T12:20:45;1026;;;20.5;61.2
55858;BME280;41779;52.360;31.026;2022-07-17T12:25:44;1026.1;;;20.5;61.2
55858;BME280;41779;52.360;31.026;2022-07-17T12:30:44;1026.1;;;20.6;61.1
55858;BME280;41779;52.360;31.026;2022-07-17T12:35:44;1026.2;;;20.7;60.1
55858;BME280;41779;52.360;31.026;2022-07-17T12:40:44;1026.2;;;20.9;60.2
55858;BME280;41779;52.360;31.026;2022-07-17T12:45:44;1026.1;;;20.9;59.9
55858;BME280;41779;52.360;31.026;2022-07-17T12:50:44;1026.2;;;20.8;59.9
55858;BME280;41779;52.360;31.026;2022-07-17T12:55:44;1026.3;;;20.9;60
55858;BME280;41779;52.360;31.026;2022-07-17T13:00:44;1026.4;;;20.9;59.5
55858;BME280;41779;52.360;31.026;2022-07-17T13:05:44;1026.4;;;20.9;59
55858;BME280;41779;52.360;31.026;2022-07-17T13:10:44;1026.4;;;21.1;58.6
55858;BME280;41779;52.360;31.026;2022-07-17T13:15:44;1026.5;;;21.2;58.2
55858;BME280;41779;52.360;31.026;2022-07-17T13:20:44;1026.6;;;21.2;57.4
55858;BME280;41779;52.360;31.026;2022-07-17T13:25:44;1026.5;;;21.4;56.3
55858;BME280;41779;52.360;31.026;2022-07-17T13:30:44;1026.6;;;21.2;57
55858;BME280;41779;52.360;31.026;2022-07-17T13:35:44;1026.6;;;21;57.3
55858;BME280;41779;52.360;31.026;2022-07-17T13:40:44;1026.6;;;21;57.2
55858;BME280;41779;52.360;31.026;2022-07-17T13:45:44;1026.5;;;21.2;56.5
55858;BME280;41779;52.360;31.026;2022-07-17T13:50:44;1026.5;;;21.2;56.1
55858;BME280;41779;52.360;31.026;2022-07-17T13:55:44;1026.5;;;21.1;55.7
55858;BME280;41779;52.360;31.026;2022-07-17T14:00:44;1026.5;;;21.2;55.6
55858;BME280;41779;52.360;31.026;2022-07-17T14:05:44;1026.5;;;21.2;55.8
55858;BME280;41779;52.360;31.026;2022-07-17T14:10:44;1026.5;;;21.2;55.8
55858;BME280;41779;52.360;31.026;2022-07-17T14:15:44;1026.5;;;21.2;55.8
55858;BME280;41779;52.360;31.026;2022-07-17T14:20:44;1026.5;;;21.1;56.4
55858;BME280;41779;52.360;31.026;2022-07-17T14:25:44;1026.5;;;20.9;56.7
55858;BME280;41779;52.360;31.026;2022-07-17T14:30:44;1026.5;;;21;56.7
55858;BME280;41779;52.360;31.026;2022-07-17T14:35:44;1026.5;;;20.9;57.5
55858;BME280;41779;52.360;31.026;2022-07-17T14:40:44;1026.4;;;20.9;57.3
55858;BME280;41779;52.360;31.026;2022-07-17T14:45:44;1026.4;;;21.1;56.8
55858;BME280;41779;52.360;31.026;2022-07-17T14:50:44;1026.3;;;21.2;56.2
55858;BME280;41779;52.360;31.026;2022-07-17T14:55:44;1026.3;;;21.3;56.4
55858;BME280;41779;52.360;31.026;2022-07-17T15:00:44;1026.3;;;21.1;57.4
55858;BME280;41779;52.360;31.026;2022-07-17T15:05:44;1026.4;;;20.7;58.2
55858;BME280;41779;52.360;31.026;2022-07-17T15:10:44;1026.4;;;20.7;57.9
55858;BME280;41779;52.360;31.026;2022-07-17T15:15:44;1026.4;;;20.9;57.7
55858;BME280;41779;52.360;31.026;2022-07-17T15:20:44;1026.5;;;20.8;57.9
55858;BME280;41779;52.360;31.026;2022-07-17T15:25:44;1026.5;;;20.8;57.7
55858;BME280;41779;52.360;31.026;2022-07-17T15:30:44;1026.6;;;20.7;58.5
55858;BME280;41779;52.360;31.026;2022-07-17T15:35:44;1026.6;;;20.3;60
55858;BME280;41779;52.360;31.026;2022-07-17T15:40:44;1026.7;;;19.9;60.6
55858;BME280;41779;52.360;31.026;2022-07-17T15:45:44;1026.7;;;19.5;61.5
55858;BME280;41779;52.360;31.026;2022-07-17T15:50:44;1026.8;;;19.1;62.4
55858;BME280;41779;52.360;31.026;2022-07-17T15:55:44;1026.8;;;18.8;63.8
55858;BME280;41779;52.360;31.026;2022-07-17T16:00:44;1026.8;;;18.4;65.7
55858;BME280;41779;52.360;31.026;2022-07-17T16:05:44;1026.8;;;18.2;67
55858;BME280;41779;52.360;31.026;2022-07-17T16:10:44;1026.8;;;18;67.2
55858;BME280;41779;52.360;31.026;2022-07-17T16:15:44;1026.8;;;17.9;67.3
55858;BME280;41779;52.360;31.026;2022-07-17T16:20:44;1026.9;;;17.9;67.2
55858;BME280;41779;52.360;31.026;2022-07-17T16:25:44;1026.9;;;17.9;67.7
55858;BME280;41779;52.360;31.026;2022-07-17T16:30:44;1027;;;17.9;68.7
55858;BME280;41779;52.360;31.026;2022-07-17T16:35:44;1027;;;17.9;68.7
55858;BME280;41779;52.360;31.026;2022-07-17T16:40:44;1027;;;17.8;68.8
55858;BME280;41779;52.360;31.026;2022-07-17T16:45:44;1027;;;17.8;68.6
55858;BME280;41779;52.360;31.026;2022-07-17T16:50:44;1027.1;;;17.8;68.4
55858;BME280;41779;52.360;31.026;2022-07-17T16:55:44;1027.1;;;17.8;68.6
55858;BME280;41779;52.360;31.026;2022-07-17T17:00:44;1027;;;17.8;69.1
55858;BME280;41779;52.360;31.026;2022-07-17T17:05:44;1027.1;;;17.8;69.2
55858;BME280;41779;52.360;31.026;2022-07-17T17:10:44;1027.2;;;17.9;69.4
55858;BME280;41779;52.360;31.026;2022-07-17T17:15:44;1027.2;;;17.9;68.9
55858;BME280;41779;52.360;31.026;2022-07-17T17:20:44;1027.2;;;17.9;68.8
55858;BME280;41779;52.360;31.026;2022-07-17T17:25:44;1027.2;;;18;68.7
55858;BME280;41779;52.360;31.026;2022-07-17T17:30:44;1027.3;;;18;69
55858;BME280;41779;52.360;31.026;2022-07-17T17:35:44;1027.3;;;18;68.9
55858;BME280;41779;52.360;31.026;2022-07-17T17:40:44;1027.3;;;17.9;68.3
55858;BME280;41779;52.360;31.026;2022-07-17T17:45:44;1027.4;;;17.9;67.9
55858;BME280;41779;52.360;31.026;2022-07-17T17:50:44;1027.5;;;17.8;67.9
55858;BME280;41779;52.360;31.026;2022-07-17T17:55:44;1027.5;;;17.7;67.9
55858;BME280;41779;52.360;31.026;2022-07-17T18:00:44;1027.6;;;17.7;67.8
55858;BME280;41779;52.360;31.026;2022-07-17T18:05:44;1027.6;;;17.6;67.9
55858;BME280;41779;52.360;31.026;2022-07-17T18:10:44;1027.7;;;17.6;68.2
55858;BME280;41779;52.360;31.026;2022-07-17T18:15:44;1027.8;;;17.6;68.3
55858;BME280;41779;52.360;31.026;2022-07-17T18:20:44;1027.9;;;17.7;68.4
55858;BME280;41779;52.360;31.026;2022-07-17T18:25:44;1028;;;17.7;68.3
55858;BME280;41779;52.360;31.026;2022-07-17T18:30:44;1028;;;17.7;68.6
55858;BME280;41779;52.360;31.026;2022-07-17T18:35:44;1028.1;;;17.6;69.3
55858;BME280;41779;52.360;31.026;2022-07-17T18:40:44;1028.1;;;17.6;69.7
55858;BME280;41779;52.360;31.026;2022-07-17T18:45:44;1028.2;;;17.6;69.5
55858;BME280;41779;52.360;31.026;2022-07-17T18:50:44;1028.2;;;17.6;69.4
55858;BME280;41779;52.360;31.026;2022-07-17T18:55:44;1028.3;;;17.5;69.4
55858;BME280;41779;52.360;31.026;2022-07-17T19:00:44;1028.3;;;17.5;69.4
55858;BME280;41779;52.360;31.026;2022-07-17T19:05:44;1028.3;;;17.4;69.8
55858;BME280;41779;52.360;31.026;2022-07-17T19:10:44;1028.3;;;17.4;70
55858;BME280;41779;52.360;31.026;2022-07-17T19:15:44;1028.3;;;17.5;70
55858;BME280;41779;52.360;31.026;2022-07-17T19:20:44;1028.3;;;17.5;70
55858;BME280;41779;52.360;31.026;2022-07-17T19:25:44;1028.3;;;17.5;70.2
55858;BME280;41779;52.360;31.026;2022-07-17T19:30:44;1028.3;;;17.5;70.3
55858;BME280;41779;52.360;31.026;2022-07-17T19:35:44;1028.3;;;17.5;70.2
55858;BME280;41779;52.360;31.026;2022-07-17T19:40:44;1028.3;;;17.5;70.5
55858;BME280;41779;52.360;31.026;2022-07-17T19:45:44;1028.4;;;17.5;70.5
55858;BME280;41779;52.360;31.026;2022-07-17T19:50:44;1028.4;;;17.5;70.4
55858;BME280;41779;52.360;31.026;2022-07-17T19:55:44;1028.4;;;17.5;70.5
55858;BME280;41779;52.360;31.026;2022-07-17T20:00:44;1028.4;;;17.5;70.5
55858;BME280;41779;52.360;31.026;2022-07-17T20:05:44;1028.3;;;17.5;70.6
55858;BME280;41779;52.360;31.026;2022-07-17T20:10:44;1028.3;;;17.6;70.4
55858;BME280;41779;52.360;31.026;2022-07-17T20:15:44;1028.3;;;17.6;70.3
55858;BME280;41779;52.360;31.026;2022-07-17T20:20:44;1028.4;;;17.6;70
55858;BME280;41779;52.360;31.026;2022-07-17T20:25:45;1028.4;;;17.7;69.8
55858;BME280;41779;52.360;31.026;2022-07-17T20:30:44;1028.4;;;17.7;69.6
55858;BME280;41779;52.360;31.026;2022-07-17T20:35:44;1028.4;;;17.7;69.4
55858;BME280;41779;52.360;31.026;2022-07-17T20:40:44;1028.4;;;17.7;69.6
55858;BME280;41779;52.360;31.026;2022-07-17T20:45:44;1028.3;;;17.7;69.5
55858;BME280;41779;52.360;31.026;2022-07-17T20:50:44;1028.4;;;17.7;69.2
55858;BME280;41779;52.360;31.026;2022-07-17T20:55:44;1028.4;;;17.7;69.5
55858;BME280;41779;52.360;31.026;2022-07-17T21:00:44;1028.4;;;17.7;69.7
55858;BME280;41779;52.360;31.026;2022-07-17T21:05:44;1028.5;;;17.7;69.8
55858;BME280;41779;52.360;31.026;2022-07-17T21:10:44;1028.5;;;17.7;69.8
55858;BME280;41779;52.360;31.026;2022-07-17T21:15:44;1028.5;;;17.7;69.7
55858;BME280;41779;52.360;31.026;2022-07-17T21:20:44;1028.5;;;17.7;69.7
55858;BME280;41779;52.360;31.026;2022-07-17T21:25:44;1028.5;;;17.7;69.4
55858;BME280;41779;52.360;31.026;2022-07-17T21:30:44;1028.5;;;17.7;69.3
55858;BME280;41779;52.360;31.026;2022-07-17T21:35:44;1028.5;;;17.7;69.4
55858;BME280;41779;52.360;31.026;2022-07-17T21:40:44;1028.5;;;17.7;69.3
55858;BME280;41779;52.360;31.026;2022-07-17T21:45:44;1028.6;;;17.7;69.1
55858;BME280;41779;52.360;31.026;2022-07-17T21:50:44;1028.7;;;17.6;69.1
55858;BME280;41779;52.360;31.026;2022-07-17T21:55:44;1028.7;;;17.6;69.2
55858;BME280;41779;52.360;31.026;2022-07-17T22:00:44;1028.7;;;17.6;69.3
55858;BME280;41779;52.360;31.026;2022-07-17T22:05:44;1028.7;;;17.6;69.6
55858;BME280;41779;52.360;31.026;2022-07-17T22:10:44;1028.8;;;17.6;69.9
55858;BME280;41779;52.360;31.026;2022-07-17T22:15:44;1028.8;;;17.6;70
55858;BME280;41779;52.360;31.026;2022-07-17T22:20:44;1028.8;;;17.5;69.8
55858;BME280;41779;52.360;31.026;2022-07-17T22:25:44;1028.7;;;17.5;69.7
55858;BME280;41779;52.360;31.026;2022-07-17T22:30:44;1028.7;;;17.5;69.8
55858;BME280;41779;52.360;31.026;2022-07-17T22:35:45;1028.7;;;17.5;69.7
55858;BME280;41779;52.360;31.026;2022-07-17T22:40:44;1028.6;;;17.5;69.5
55858;BME280;41779;52.360;31.026;2022-07-17T22:45:44;1028.6;;;17.5;69.5
55858;BME280;41779;52.360;31.026;2022-07-17T22:50:44;1028.6;;;17.4;69.5
55858;BME280;41779;52.360;31.026;2022-07-17T22:55:44;1028.6;;;17.4;69.3
55858;BME280;41779;52.360;31.026;2022-07-17T23:00:44;1028.6;;;17.4;69.2
55858;BME280;41779;52.360;31.026;2022-07-17T23:05:44;1028.6;;;17.3;69
55858;BME280;41779;52.360;31.026;2022-07-17T23:10:44;1028.6;;;17.3;69
55858;BME280;41779;52.360;31.026;2022-07-17T23:15:44;1028.6;;;17.3;68.9
55858;BME280;41779;52.360;31.026;2022-07-17T23:20:44;1028.6;;;17.3;68.9
55858;BME280;41779;52.360;31.026;2022-07-17T23:25:44;1028.6;;;17.3;69
55858;BME280;41779;52.360;31.026;2022-07-17T23:30:44;1028.6;;;17.3;68.9
55858;BME280;41779;52.360;31.026;2022-07-17T23:35:44;1028.7;;;17.3;68.9
55858;BME280;41779;52.360;31.026;2022-07-17T23:40:44;1028.6;;;17.2;69
55858;BME280;41779;52.360;31.026;2022-07-17T23:45:44;1028.7;;;17.2;69
55858;BME280;41779;52.360;31.026;2022-07-17T23:50:44;1028.7;;;17.2;69.2
55858;BME280;41779;52.360;31.026;2022-07-17T23:55:44;1028.7;;;17.2;69.1
